Lodi, Wisconsin
Current Conditions -  °F | °C
As of 12:15 AM on Saturday 29 Nov 2014 (Local Time) from KC29 Reporting Station
Clear Clear  
Wind Chill: 25°   Ceiling: Unl
Heat Index: 30°   Visibility: 5mi
Dew Point: 29°   Wind: 5mph
Humidity: 96%   Direction: 110°ESE
Pressure: 29.77"   Gusts: NA
Location:  43.31°N, 89.53°W
Report Text: KC29 290615Z AUTO 11004KT 5SM CLR M01/M02 A2977 RMK AO1 T10101016
Loading
Personal Weather Stations






























Interactive Weather Map New forecast layout! Learn more

10-Day Weather Forecast

Advertisements
Track Severe Weather on mobile